Time;durP1;ratioP1;P1;durP2;ratioP2;P2;SDS_P1;SDS_P2;PMS_P1;PMS_P2;Temp;Humidity;BMP_temperature;BMP_pressure;BME280_temperature;BME280_humidity;BME280_pressure;Samples;Min_cycle;Max_cycle;Signal;HPM_P1;HPM_P2
2022/11/30 00:04:16;;;;;;;186.13;66.55;;;3.90;99.90;;;2.16;100.00;102050.53;5017847;28;20040;-81
2022/11/30 00:06:57;;;;;;;185.32;70.80;;;;;;;2.14;100.00;102057.44;5001231;28;20089;-82
2022/11/30 00:09:35;;;;;;;184.82;68.22;;;3.80;99.90;;;2.12;100.00;102057.47;5020366;28;20108;-82
2022/11/30 00:12:17;;;;;;;191.68;69.13;;;;;;;2.22;100.00;102064.47;4980138;28;20023;-81
2022/11/30 00:18:08;;;;;;;180.55;65.47;;;3.90;99.90;;;2.22;100.00;102061.88;4960644;28;20043;-81
2022/11/30 00:20:36;;;;;;;188.77;68.25;;;3.90;99.90;;;2.32;100.00;102069.78;5010846;28;20049;-82
2022/11/30 00:23:26;;;;;;;181.40;68.97;;;;;;;2.34;100.00;102071.53;5041946;28;20060;-82
2022/11/30 00:29:57;;;;;;;187.60;71.40;;;4.00;99.90;;;2.39;100.00;102055.97;5032291;28;20041;-82
2022/11/30 00:32:48;;;;;;;165.18;57.58;;;;;;;2.24;100.00;102065.34;5026056;28;20025;-82
2022/11/30 00:36:28;;;;;;;;;;;;;;;;;;;;;
2022/11/30 00:38:57;;;;;;;191.75;70.47;;;3.90;99.90;;;2.32;100.00;102056.78;5039050;28;20033;-80
2022/11/30 00:41:48;;;;;;;;;;;;;;;;;;;;;
2022/11/30 00:44:17;;;;;;;191.45;71.57;;;4.00;99.90;;;2.32;100.00;102065.44;5038405;28;20059;-81
2022/11/30 00:47:46;;;;;;;199.05;74.40;;;;;;;2.16;100.00;102072.22;5024027;28;20037;-82
2022/11/30 00:51:18;;;;;;;205.75;68.07;;;3.90;99.90;;;2.20;100.00;102074.00;5025452;28;20079;-82
2022/11/30 00:54:18;;;;;;;;;;;;;;;;;;;;;
2022/11/30 00:57:16;;;;;;;211.55;72.75;;;3.80;99.90;;;2.05;100.00;102063.44;5038287;28;20489;-81
2022/11/30 01:00:06;;;;;;;209.02;70.68;;;3.80;99.90;;;1.97;100.00;102067.69;5041024;28;20413;-81
2022/11/30 01:03:16;;;;;;;216.13;73.28;;;;;;;2.02;100.00;102066.88;5036875;28;20029;-81
2022/11/30 01:07:17;;;;;;;217.25;75.18;;;3.70;99.90;;;2.08;100.00;102067.81;5036321;28;20056;-83
2022/11/30 01:10:07;;;;;;;227.45;72.88;;;3.70;99.90;;;2.00;100.00;102057.31;4964490;28;20113;-81
2022/11/30 01:13:18;;;;;;;;;;;;;;;;;;;;;
2022/11/30 01:20:17;;;;;;;228.57;75.43;;;;;;;2.08;100.00;102071.28;4885818;29;20048;-82
2022/11/30 01:22:58;;;;;;;219.00;73.90;;;3.70;99.90;;;2.12;100.00;102073.06;4940958;29;20507;-82
2022/11/30 01:26:08;;;;;;;217.50;68.35;;;;;;;2.18;100.00;102067.91;4923864;29;20051;-82
2022/11/30 01:28:39;;;;;;;230.07;74.97;;;;;;;2.14;100.00;102068.75;4940226;29;20097;-82
2022/11/30 01:31:18;;;;;;;226.93;72.28;;;3.80;99.90;;;2.15;100.00;102073.06;4928270;29;20132;-82
2022/11/30 01:36:58;;;;;;;;;;;;;;;;;;;;;
2022/11/30 01:39:26;;;;;;;219.77;69.25;;;3.80;99.90;;;2.16;100.00;102066.13;5018142;28;20061;-82
2022/11/30 01:42:37;;;;;;;;;;;;;;;;;;;;;
2022/11/30 01:46:08;;;;;;;219.05;70.00;;;3.70;99.90;;;2.01;100.00;102067.75;5038745;28;20037;-82
2022/11/30 01:49:25;;;;;;;206.77;67.57;;;;;;;1.98;100.00;102067.69;5017818;28;20049;-82
2022/11/30 02:00:09;;;;;;;;;;;;;;;;;;;;;
2022/11/30 02:03:47;;;;;;;227.43;72.93;;;3.70;99.90;;;2.04;100.00;102069.50;4934495;28;20390;-82
2022/11/30 02:06:28;;;;;;;208.35;66.72;;;;;;;1.94;100.00;102070.25;4968076;28;20170;-81
2022/11/30 02:13:38;;;;;;;205.38;67.55;;;;;;;2.07;100.00;102072.13;4977279;28;20053;-81
2022/11/30 02:17:06;;;;;;;227.48;74.25;;;3.70;99.90;;;2.00;100.00;102076.38;5017352;28;20052;-82
2022/11/30 02:20:18;;;;;;;220.98;71.80;;;3.70;99.90;;;2.02;100.00;102082.47;5019222;28;20037;-82
2022/11/30 02:24:30;;;;;;;;;;;;;;;;;;;;;
2022/11/30 02:27:51;;;;;;;;;;;;;;;;;;;;;
2022/11/30 02:31:09;;;;;;;;;;;;;;;;;;;;;
2022/11/30 02:33:49;;;;;;;;;;;;;;;;;;;;;
2022/11/30 02:36:47;;;;;;;215.30;72.95;;;3.70;99.90;;;2.07;100.00;102082.50;5008869;28;20413;-82
2022/11/30 02:39:28;;;;;;;217.20;72.82;;;;;;;2.16;100.00;102084.31;5041813;28;21416;-82
2022/11/30 02:42:38;;;;;;;216.90;69.75;;;3.80;99.90;;;2.10;100.00;102085.16;5040109;28;20029;-81
2022/11/30 02:45:09;;;;;;;209.25;69.47;;;3.80;99.90;;;2.10;100.00;102086.88;5043151;28;20037;-81
2022/11/30 02:48:37;;;;;;;211.50;70.43;;;3.80;99.90;;;2.07;100.00;102085.09;5039311;28;20482;-82
2022/11/30 02:51:47;;;;;;;201.13;69.75;;;;;;;2.05;100.00;102085.13;5043091;28;20042;-82
2022/11/30 02:57:37;;;;;;;193.73;67.65;;;;;;;1.99;100.00;102087.63;4928232;29;20048;-81
2022/11/30 03:00:19;;;;;;;178.05;59.60;;;3.70;99.90;;;2.04;100.00;102087.69;4929384;29;20051;-83
2022/11/30 03:03:47;;;;;;;192.52;64.03;;;;;;;2.00;100.00;102096.28;4947555;28;20035;-81
2022/11/30 03:10:38;;;;;;;197.18;65.55;;;;;;;2.09;100.00;102098.97;4957498;28;20134;-82
2022/11/30 03:13:20;;;;;;;196.77;70.82;;;3.70;99.90;;;2.10;100.00;102092.94;4994358;28;20042;-82
2022/11/30 03:15:49;;;;;;;186.98;67.05;;;;;;;2.20;100.00;102089.59;4986694;28;20075;-82
2022/11/30 03:19:08;;;;;;;;;;;;;;;;;;;;;
2022/11/30 03:22:07;;;;;;;;;;;;;;;;;;;;;
2022/11/30 03:25:08;;;;;;;178.82;66.50;;;3.80;99.90;;;2.04;100.00;102093.75;4923976;29;20036;-82
2022/11/30 03:31:39;;;;;;;;;;;;;;;;;;;;;
2022/11/30 03:34:08;;;;;;;170.82;62.35;;;;;;;2.05;100.00;102108.50;5037752;28;20040;-81
2022/11/30 03:37:08;;;;;;;175.65;63.50;;;3.70;99.90;;;2.07;100.00;102103.28;5058784;28;20082;-82
2022/11/30 03:43:39;;;;;;;;;;;;;;;;;;;;;
2022/11/30 03:46:08;;;;;;;180.73;66.80;;;;;;;2.03;100.00;102109.31;4989591;28;20398;-82
2022/11/30 03:55:17;;;;;;;171.10;62.60;;;3.70;99.90;;;2.10;100.00;102116.34;5019730;28;20042;-82
2022/11/30 03:58:38;;;;;;;171.43;62.42;;;3.80;99.90;;;2.09;100.00;102109.38;5042883;28;20044;-82
2022/11/30 04:02:07;;;;;;;176.75;61.83;;;3.70;99.90;;;2.05;100.00;102113.69;5028838;28;20050;-82
2022/11/30 04:04:50;;;;;;;169.77;61.78;;;;;;;2.04;100.00;102111.94;5001370;28;20081;-82
2022/11/30 04:07:28;;;;;;;174.13;64.68;;;;;;;2.09;100.00;102111.97;5001147;28;20406;-82
2022/11/30 04:10:28;;;;;;;176.23;63.83;;;;;;;2.14;100.00;102117.22;4982434;28;20669;-83
2022/11/30 04:15:29;;;;;;;175.98;65.60;;;3.80;99.90;;;2.08;100.00;102127.56;5028091;28;20061;-81
2022/11/30 04:17:55;;;;;;;153.90;62.50;;;3.70;99.90;;;2.01;100.00;102129.22;5017061;28;20400;-80
2022/11/30 04:20:20;;;;;;;162.27;64.30;;;3.70;99.90;;;2.07;100.00;102131.88;5005501;28;20045;-82
2022/11/30 04:22:54;;;;;;;161.80;60.13;;;3.70;99.90;;;1.98;100.00;102118.78;5016491;28;20807;-82
2022/11/30 04:25:19;;;;;;;166.20;61.67;;;3.70;99.90;;;2.02;100.00;102129.22;4992957;28;20019;-81
2022/11/30 04:27:46;;;;;;;173.20;62.90;;;3.70;99.90;;;2.12;100.00;102131.94;4997625;28;20121;-81
2022/11/30 04:30:13;;;;;;;168.63;59.53;;;3.70;99.90;;;2.05;100.00;102124.09;4995991;28;20506;-82
2022/11/30 04:32:46;;;;;;;171.02;63.40;;;3.80;99.90;;;2.20;100.00;102120.78;4980109;28;20030;-82
2022/11/30 04:35:12;;;;;;;158.07;58.92;;;3.80;99.90;;;2.17;100.00;102125.94;4996351;28;20560;-82
2022/11/30 04:37:37;;;;;;;168.05;63.60;;;3.80;99.90;;;2.13;100.00;102137.16;4996837;28;20033;-82
2022/11/30 04:40:05;;;;;;;166.07;62.75;;;3.80;99.90;;;2.13;100.00;102134.53;4996856;28;20409;-81
2022/11/30 04:42:36;;;;;;;172.13;65.28;;;3.80;99.90;;;2.10;100.00;102138.84;4994761;28;20045;-82
2022/11/30 04:45:02;;;;;;;158.77;62.30;;;3.80;99.90;;;2.18;100.00;102130.28;4996376;28;20037;-81
2022/11/30 04:47:30;;;;;;;177.15;63.42;;;3.80;99.90;;;2.22;100.00;102128.56;4996500;28;20118;-81
2022/11/30 04:49:56;;;;;;;166.40;61.60;;;3.80;99.90;;;2.21;100.00;102119.03;4996677;28;20120;-81
2022/11/30 04:52:53;;;;;;;165.10;60.60;;;3.80;99.90;;;2.18;100.00;102125.09;4996099;28;20113;-83
2022/11/30 04:55:19;;;;;;;169.80;62.80;;;3.80;99.90;;;2.16;100.00;102118.09;5012333;28;20057;-82
2022/11/30 04:57:46;;;;;;;175.55;63.10;;;3.80;99.90;;;2.17;100.00;102128.53;5014831;28;20076;-82
2022/11/30 05:00:16;;;;;;;160.73;59.13;;;3.80;99.90;;;2.09;100.00;102122.38;4980081;28;20034;-82
2022/11/30 05:02:42;;;;;;;165.85;63.22;;;3.80;99.90;;;2.07;100.00;102131.00;4995532;28;20053;-83
2022/11/30 05:05:09;;;;;;;159.50;59.88;;;3.80;99.90;;;2.16;100.00;102125.91;4995679;28;20018;-80
2022/11/30 05:07:35;;;;;;;168.23;64.10;;;3.80;99.90;;;2.23;100.00;102130.34;4995770;28;20551;-82
2022/11/30 05:10:01;;;;;;;162.65;60.47;;;3.80;99.90;;;2.08;100.00;102133.63;4978549;28;20033;-82
2022/11/30 05:12:35;;;;;;;163.10;64.03;;;3.80;99.90;;;2.13;100.00;102134.53;4994263;28;20041;-80
2022/11/30 05:15:00;;;;;;;170.20;64.88;;;3.80;99.90;;;2.13;100.00;102138.88;4993999;28;20034;-82
2022/11/30 05:17:26;;;;;;;162.10;65.07;;;3.80;99.90;;;2.23;100.00;102135.53;4995734;28;20566;-81
2022/11/30 05:19:52;;;;;;;170.40;64.07;;;3.80;99.90;;;2.19;100.00;102136.34;4995025;28;20072;-81
2022/11/30 05:22:18;;;;;;;171.80;64.63;;;3.80;99.90;;;2.14;100.00;102141.50;4994768;28;20117;-81
2022/11/30 05:24:51;;;;;;;174.23;63.20;;;3.80;99.90;;;2.14;100.00;102149.31;4979447;28;20129;-83
2022/11/30 05:27:17;;;;;;;165.60;63.10;;;3.80;99.90;;;2.24;100.00;102145.06;4977342;28;20026;-81
2022/11/30 05:29:42;;;;;;;167.05;64.93;;;3.90;99.90;;;2.26;100.00;102145.94;4994964;28;20176;-81
2022/11/30 05:32:08;;;;;;;170.10;65.35;;;3.90;99.90;;;2.28;100.00;102148.56;4994082;28;20122;-80
2022/11/30 05:34:34;;;;;;;168.98;65.78;;;3.90;99.90;;;2.21;100.00;102147.63;4995038;28;20142;-80
2022/11/30 05:37:04;;;;;;;162.05;62.75;;;3.90;99.90;;;2.31;100.00;102156.38;4994820;28;20124;-82
2022/11/30 05:39:30;;;;;;;165.30;67.10;;;3.90;99.90;;;2.22;100.00;102152.81;4993024;28;20056;-82
2022/11/30 05:41:56;;;;;;;162.55;62.55;;;3.80;99.90;;;2.24;100.00;102165.84;4994424;28;20461;-81
2022/11/30 05:44:36;;;;;;;166.38;63.78;;;3.90;99.90;;;2.22;100.00;102165.81;4993971;28;20094;-82
2022/11/30 05:47:36;;;;;;;163.63;66.28;;;3.90;99.90;;;2.29;100.00;102161.59;4997259;28;20029;-82
2022/11/30 05:50:28;;;;;;;175.75;64.97;;;3.90;99.90;;;2.30;100.00;102168.50;4995606;28;20030;-83
2022/11/30 05:52:55;;;;;;;179.38;63.72;;;3.90;99.90;;;2.21;100.00;102166.69;4995115;28;20033;-83
2022/11/30 05:55:32;;;;;;;170.98;63.33;;;3.90;99.90;;;2.22;100.00;102163.22;4994069;28;20522;-82
2022/11/30 05:57:58;;;;;;;179.95;66.47;;;3.90;99.90;;;2.28;100.00;102171.97;4996079;28;20034;-81
2022/11/30 06:00:27;;;;;;;177.85;67.93;;;3.90;99.90;;;2.32;100.00;102176.34;4995109;28;20033;-82
2022/11/30 06:02:58;;;;;;;167.93;66.40;;;3.80;99.90;;;2.15;100.00;102166.63;5007939;28;20031;-83
2022/11/30 06:05:26;;;;;;;181.27;68.65;;;3.80;99.90;;;2.12;100.00;102168.34;4994993;28;20026;-83
2022/11/30 06:07:53;;;;;;;177.90;67.72;;;3.80;99.90;;;2.21;100.00;102171.88;4995825;28;20507;-83
2022/11/30 06:10:26;;;;;;;192.30;70.15;;;3.90;99.90;;;2.24;100.00;102182.31;4994507;28;20486;-83
2022/11/30 06:12:58;;;;;;;189.65;69.43;;;3.90;99.90;;;2.29;100.00;102178.88;4993755;28;20026;-82
2022/11/30 06:15:32;;;;;;;180.93;68.93;;;3.90;99.90;;;2.28;100.00;102172.81;4993853;28;20034;-83
2022/11/30 06:17:58;;;;;;;207.65;75.70;;;3.90;99.90;;;2.35;100.00;102184.16;4994062;28;20033;-82
2022/11/30 06:20:36;;;;;;;189.80;69.85;;;;;;;2.33;100.00;102191.94;4994648;28;20601;-84
2022/11/30 06:23:05;;;;;;;172.55;64.93;;;;;;;2.13;100.00;102189.13;5008807;28;20037;-85
2022/11/30 06:25:38;;;;;;;180.88;68.15;;;3.90;99.90;;;2.23;100.00;102201.38;4994392;28;20029;-83
2022/11/30 06:28:11;;;;;;;181.75;71.40;;;;;;;2.25;100.00;102197.06;4994445;28;20033;-85
2022/11/30 06:31:05;;;;;;;177.98;68.65;;;3.90;99.90;;;2.14;100.00;102188.28;5011171;28;20041;-83
2022/11/30 06:33:41;;;;;;;178.32;68.70;;;;;;;2.13;100.00;102191.72;4993074;28;20026;-84
2022/11/30 06:36:07;;;;;;;180.85;68.93;;;3.80;99.90;;;2.12;100.00;102195.19;4992730;28;20042;-82
2022/11/30 06:38:51;;;;;;;180.25;70.53;;;3.80;99.90;;;2.12;100.00;102202.13;4994856;28;20033;-85
2022/11/30 06:41:26;;;;;;;185.05;70.18;;;3.70;99.90;;;2.05;100.00;102202.03;4992508;28;20045;-82
2022/11/30 06:43:52;;;;;;;194.75;70.38;;;3.80;99.90;;;2.09;100.00;102197.72;4993320;28;20022;-82
2022/11/30 06:46:18;;;;;;;187.02;68.32;;;3.80;99.90;;;2.20;100.00;102200.44;4992199;28;20080;-82
2022/11/30 06:48:53;;;;;;;152.95;55.92;;;;;;;2.02;100.00;102201.97;4994289;28;20030;-85
2022/11/30 06:51:19;;;;;;;179.35;69.00;;;3.70;99.90;;;1.97;100.00;102198.47;5011414;28;20025;-82
2022/11/30 06:53:45;;;;;;;190.50;69.72;;;3.70;99.90;;;2.07;100.00;102199.44;5010596;28;20741;-83
2022/11/30 06:56:16;;;;;;;174.95;62.75;;;3.70;99.90;;;1.99;100.00;102206.28;4995083;28;20076;-83
2022/11/30 06:58:42;;;;;;;189.07;68.82;;;3.70;99.90;;;2.08;100.00;102203.78;4993553;28;20034;-84
2022/11/30 07:01:12;;;;;;;188.13;69.63;;;3.70;99.90;;;2.14;100.00;102200.38;5009088;28;20068;-83
2022/11/30 07:03:46;;;;;;;184.63;69.13;;;3.80;99.90;;;2.22;100.00;102216.94;4994087;28;20482;-82
2022/11/30 07:06:33;;;;;;;179.88;68.80;;;3.80;99.90;;;2.16;100.00;102216.84;4993896;28;20038;-84
2022/11/30 07:08:58;;;;;;;184.23;70.93;;;3.80;99.90;;;2.21;100.00;102215.22;4993372;28;20071;-82
2022/11/30 07:11:36;;;;;;;186.15;65.40;;;3.80;99.90;;;2.21;100.00;102210.00;4992136;28;20097;-84
2022/11/30 07:14:02;;;;;;;193.27;70.85;;;3.80;99.90;;;2.23;100.00;102223.91;4994551;28;20046;-83
2022/11/30 07:16:31;;;;;;;175.25;63.17;;;3.80;99.90;;;2.18;100.00;102230.75;4977429;28;20505;-83
2022/11/30 07:19:04;;;;;;;187.07;71.25;;;3.80;99.90;;;2.21;100.00;102236.88;4998183;28;20379;-84
2022/11/30 07:21:29;;;;;;;195.52;69.57;;;3.80;99.90;;;2.18;100.00;102239.44;4989860;28;20430;-83
2022/11/30 07:26:45;;;;;;;180.57;68.10;;;3.80;99.90;;;2.23;100.00;102242.94;5000323;28;20750;-84
2022/11/30 07:29:11;;;;;;;169.23;62.95;;;3.80;99.90;;;2.14;100.00;102239.34;4998002;28;20034;-84
2022/11/30 07:31:37;;;;;;;188.80;71.65;;;3.80;99.90;;;2.18;100.00;102234.25;4996897;28;20688;-83
2022/11/30 07:34:12;;;;;;;185.40;69.53;;;3.80;99.90;;;2.21;100.00;102242.06;4982600;28;20125;-84
2022/11/30 07:36:37;;;;;;;182.18;66.35;;;3.90;99.90;;;2.19;100.00;102241.16;4997582;28;20029;-83
2022/11/30 07:39:06;;;;;;;188.85;69.60;;;3.80;99.90;;;2.19;100.00;102248.97;4982498;28;20045;-83
2022/11/30 07:41:37;;;;;;;184.65;71.15;;;3.80;99.90;;;2.24;100.00;102252.47;4997972;28;20029;-83
2022/11/30 07:44:26;;;;;;;190.13;70.80;;;3.80;99.90;;;2.25;100.00;102256.84;5022809;23;20036;-84
2022/11/30 07:46:59;;;;;;;188.00;72.15;;;;;;;2.23;100.00;102253.34;4983678;28;20044;-83
2022/11/30 07:49:28;;;;;;;186.15;70.40;;;3.90;99.90;;;2.26;100.00;102263.78;5064072;28;20028;-84
2022/11/30 07:52:04;;;;;;;;;;;;;;;;;;;;;
2022/11/30 07:54:30;;;;;;;167.48;57.08;;;3.90;99.90;;;2.17;100.00;102266.25;5054954;28;20025;-84
2022/11/30 07:56:56;;;;;;;192.40;72.35;;;3.80;99.90;;;2.19;100.00;102266.28;5042067;28;20040;-83
2022/11/30 07:59:35;;;;;;;191.90;68.65;;;3.90;99.90;;;2.22;100.00;102272.38;5059776;28;20609;-84
2022/11/30 08:02:01;;;;;;;196.70;74.35;;;;;;;2.30;100.00;102269.91;5058903;28;20078;-84
2022/11/30 08:04:36;;;;;;;207.77;78.68;;;3.90;99.90;;;2.34;100.00;102278.63;5076330;22;20051;-82
2022/11/30 08:07:02;;;;;;;186.30;72.30;;;3.90;99.90;;;2.32;100.00;102282.91;5042160;28;20032;-84
2022/11/30 08:09:27;;;;;;;191.45;71.88;;;3.90;99.90;;;2.31;100.00;102268.16;5025954;28;20025;-82
2022/11/30 08:12:38;;;;;;;191.98;73.75;;;3.90;99.90;;;2.25;100.00;102271.56;5051236;28;20108;-84
2022/11/30 08:14:47;;;;;;;187.82;71.50;;;3.90;99.90;;;2.31;100.00;102268.16;5038960;28;20049;-83
2022/11/30 08:17:49;;;;;;;180.57;69.15;;;4.00;99.90;;;2.34;100.00;102284.69;5018901;28;20030;-85
2022/11/30 08:20:18;;;;;;;176.95;70.13;;;;;;;2.34;100.00;102279.47;5025619;28;20124;-84
2022/11/30 08:22:48;;;;;;;178.82;65.93;;;;;;;2.34;100.00;102281.22;5038605;28;20037;-83
2022/11/30 08:25:26;;;;;;;182.77;70.85;;;4.00;99.90;;;2.46;100.00;102276.13;5062650;23;20052;-84
2022/11/30 08:27:54;;;;;;;158.52;61.80;;;4.10;99.90;;;2.36;100.00;102288.16;5024170;28;20112;-84
2022/11/30 08:30:28;;;;;;;167.63;67.53;;;4.10;99.90;;;2.42;100.00;102290.84;5027577;28;20045;-83
2022/11/30 08:32:56;;;;;;;169.25;68.75;;;4.10;99.90;;;2.43;100.00;102283.91;5043453;28;20032;-86
2022/11/30 08:35:37;;;;;;;169.88;69.32;;;;;;;2.51;100.00;102287.47;5013360;28;20035;-87
2022/11/30 08:38:27;;;;;;;161.52;57.22;;;;;;;2.47;100.00;102281.38;5027399;28;20040;-86
2022/11/30 08:41:25;;;;;;;175.45;66.65;;;;;;;2.50;100.00;102285.72;5019363;28;20132;-86
2022/11/30 08:48:58;;;;;;;166.90;65.10;;;;;;;2.63;100.00;102294.53;5074042;28;20064;-86
2022/11/30 08:51:46;;;;;;;172.88;69.35;;;;;;;2.56;100.00;102301.41;5062664;28;20449;-86
2022/11/30 08:54:47;;;;;;;164.05;67.18;;;;;;;2.54;100.00;102302.25;5058509;28;20041;-84
2022/11/30 08:57:30;;;;;;;131.13;51.75;;;;;;;2.30;100.00;102298.47;5055251;28;20059;-86
2022/11/30 09:04:39;;;;;;;166.30;64.75;;;4.10;99.90;;;2.48;100.00;102308.22;5053334;28;20044;-85
2022/11/30 09:10:15;;;;;;;158.57;65.47;;;;;;;2.62;100.00;102314.47;4962676;28;20054;-86
2022/11/30 09:15:48;;;;;;;;;;;;;;;;;;;;;
2022/11/30 09:19:30;;;;;;;;;;;;;;;;;;;;;
2022/11/30 09:22:34;;;;;;;156.70;64.95;;;;;;;2.61;100.00;102320.56;5042800;28;20030;-85
2022/11/30 09:25:27;;;;;;;147.63;59.10;;;4.30;99.90;;;2.71;100.00;102318.03;5123120;22;20049;-85
2022/11/30 09:28:36;;;;;;;;;;;;;;;;;;;;;
2022/11/30 09:31:48;;;;;;;153.23;64.10;;;4.30;99.90;;;2.70;100.00;102311.09;5048323;28;20543;-85
2022/11/30 09:34:27;;;;;;;150.68;62.65;;;;;;;2.69;100.00;102315.41;5004911;28;20045;-85
2022/11/30 09:36:57;;;;;;;150.07;63.20;;;4.40;99.90;;;2.74;100.00;102320.66;5036810;28;20048;-85
2022/11/30 09:39:35;;;;;;;160.13;67.13;;;;;;;2.79;100.00;102319.00;5029626;28;20482;-86
2022/11/30 09:48:36;;;;;;;161.93;65.60;;;;;;;2.84;100.00;102312.97;5048084;28;20494;-85
2022/11/30 09:54:48;;;;;;;144.85;62.25;;;4.50;99.90;;;2.91;100.00;102313.06;5054130;28;20040;-85
2022/11/30 09:58:03;;;;;;;144.35;61.20;;;4.50;99.90;;;2.86;100.00;102313.00;5037880;28;20041;-86
2022/11/30 10:01:07;;;;;;;144.82;61.70;;;;;;;2.91;100.00;102313.91;5033003;28;20050;-86
2022/11/30 10:03:39;;;;;;;140.45;60.45;;;4.50;99.90;;;2.92;100.00;102310.47;5063380;23;20113;-86
2022/11/30 10:07:01;;;;;;;133.48;59.50;;;;;;;2.88;100.00;102308.69;5083489;28;20416;-87
2022/11/30 10:10:17;;;;;;;137.05;61.70;;;4.50;99.90;;;2.81;100.00;102314.69;5016511;28;20071;-85
2022/11/30 10:13:46;;;;;;;136.55;61.78;;;4.50;99.90;;;2.90;100.00;102306.97;5015888;28;20068;-86
2022/11/30 10:16:58;;;;;;;139.77;60.85;;;;;;;2.95;100.00;102310.50;5082022;28;20396;-86
2022/11/30 10:20:56;;;;;;;143.38;60.95;;;4.60;99.90;;;2.94;100.00;102311.38;5065438;28;20036;-86
2022/11/30 10:24:10;;;;;;;170.77;67.93;;;;;;;2.85;100.00;102304.34;5156228;22;20082;-85
2022/11/30 10:28:08;;;;;;;159.57;67.57;;;4.60;99.90;;;2.92;100.00;102313.09;4969266;28;20053;-85
2022/11/30 10:31:10;;;;;;;;;;;;;;;;;;;;;
2022/11/30 10:41:54;;;;;;;169.55;69.35;;;4.60;99.90;;;2.95;100.00;102296.63;4922544;29;20142;-85
2022/11/30 10:45:27;;;;;;;171.45;69.95;;;;;;;2.94;100.00;102303.56;5004598;22;20068;-84
2022/11/30 10:48:52;;;;;;;165.98;69.97;;;4.70;99.90;;;3.24;100.00;102304.69;5041516;28;20512;-85
2022/11/30 10:51:47;;;;;;;170.93;70.35;;;4.80;99.90;;;3.33;100.00;102301.31;5059763;28;20071;-85
2022/11/30 10:55:22;;;;;;;157.98;65.47;;;4.90;99.90;;;3.31;99.91;102303.03;5043558;28;20121;-86
2022/11/30 10:58:29;;;;;;;163.45;69.38;;;;;;;3.38;99.95;102299.63;5024368;28;20399;-85
2022/11/30 11:29:57;;;;;;;157.98;67.25;;;4.70;99.90;;;3.03;99.14;102302.78;4956420;28;20114;-86
2022/11/30 11:32:55;;;;;;;161.18;62.78;;;;;;;2.96;99.45;102307.06;4963448;28;20513;-85
2022/11/30 11:36:38;;;;;;;158.50;64.93;;;4.70;99.90;;;3.18;99.69;102302.91;4957298;28;20129;-85
2022/11/30 11:40:08;;;;;;;157.48;66.32;;;4.80;99.90;;;3.22;98.86;102301.22;4966012;28;20038;-86
2022/11/30 11:46:37;;;;;;;;;;;;;;;;;;;;;
2022/11/30 11:49:28;;;;;;;154.23;67.38;;;4.90;99.90;;;3.41;98.27;102302.25;4969337;28;20027;-87
2022/11/30 12:03:18;;;;;;;153.27;63.35;;;5.10;99.90;;;3.60;97.28;102316.28;4907560;29;20088;-86
2022/11/30 12:24:42;;;;;;;132.80;57.78;;;5.30;99.90;;;3.61;95.24;102318.91;4978373;28;20115;-86
2022/11/30 12:27:49;;;;;;;146.27;61.33;;;;;;;3.65;95.16;102320.69;5007969;23;20043;-86
2022/11/30 12:30:59;;;;;;;127.28;58.83;;;5.20;99.90;;;3.42;95.97;102322.22;4977486;28;20035;-86
2022/11/30 12:37:38;;;;;;;145.50;56.97;;;;;;;3.44;95.83;102320.50;4976132;28;20038;-86
2022/11/30 12:45:38;;;;;;;;;;;;;;;;;;;;;
2022/11/30 12:55:38;;;;;;;146.20;62.00;;;5.00;99.90;;;3.39;98.25;102338.72;4905359;29;20044;-86
2022/11/30 13:02:47;;;;;;;133.48;57.53;;;5.00;99.90;;;3.21;97.99;102351.53;4927065;29;20614;-86
2022/11/30 13:09:59;;;;;;;136.25;59.60;;;4.90;99.90;;;3.22;98.46;102345.50;4891187;29;20716;-87
2022/11/30 13:13:30;;;;;;;132.02;58.78;;;4.90;99.90;;;3.33;98.38;102338.66;4893176;29;20109;-86
2022/11/30 13:16:38;;;;;;;134.90;60.78;;;4.90;99.90;;;3.29;98.51;102342.94;4918790;28;20027;-86
2022/11/30 13:19:51;;;;;;;139.20;59.80;;;;;;;3.18;98.38;102335.91;4884370;29;20045;-86
2022/11/30 13:23:18;;;;;;;133.85;57.80;;;4.80;99.90;;;3.08;98.96;102335.78;4859750;29;20128;-86
2022/11/30 13:33:59;;;;;;;140.25;60.45;;;4.70;99.90;;;3.16;99.72;102351.50;4882956;29;20101;-86
2022/11/30 13:40:08;;;;;;;142.30;62.95;;;4.80;99.90;;;3.22;100.00;102358.50;4871980;29;20048;-88
2022/11/30 13:43:00;;;;;;;139.95;60.33;;;4.80;99.90;;;3.18;100.00;102360.19;4882966;29;20057;-87
2022/11/30 13:45:42;;;;;;;134.90;63.00;;;;;;;3.18;100.00;102354.13;4884881;29;20036;-88
2022/11/30 13:48:51;;;;;;;;;;;;;;;;;;;;;
2022/11/30 13:51:49;;;;;;;136.27;61.83;;;4.70;99.90;;;3.06;100.00;102349.66;4946621;28;20027;-86
2022/11/30 13:54:52;;;;;;;143.85;62.13;;;4.70;99.90;;;3.08;100.00;102348.78;4943137;28;20109;-86
2022/11/30 13:57:27;;;;;;;134.43;61.17;;;4.70;99.90;;;2.97;100.00;102350.41;4946709;28;20043;-86
2022/11/30 14:00:39;;;;;;;134.57;62.75;;;4.70;99.90;;;3.02;100.00;102345.25;4963131;28;20410;-86
2022/11/30 14:03:48;;;;;;;;;;;;;;;;;;;;;
2022/11/30 14:09:58;;;;;;;143.55;62.88;;;;;;;2.93;100.00;102353.84;4966092;28;20402;-85
2022/11/30 14:13:58;;;;;;;152.23;65.75;;;4.60;99.90;;;3.00;100.00;102358.28;4953228;28;20038;-85
2022/11/30 14:17:51;;;;;;;;;;;;;;;;;;;;;
2022/11/30 14:27:49;;;;;;;140.25;63.97;;;4.60;99.90;;;3.02;100.00;102366.97;4858802;29;20081;-86
2022/11/30 14:30:29;;;;;;;143.60;61.30;;;;;;;2.85;100.00;102365.88;4868394;29;20043;-85
2022/11/30 14:34:17;;;;;;;142.55;64.82;;;4.50;99.90;;;2.80;100.00;102362.38;4875399;29;20053;-86
2022/11/30 14:37:09;;;;;;;132.65;59.53;;;;;;;2.79;100.00;102371.03;4841725;29;20042;-86
2022/11/30 14:40:20;;;;;;;143.10;62.80;;;;;;;2.82;100.00;102371.06;4832867;29;20042;-86
2022/11/30 14:43:13;;;;;;;;;;;;;;;;;;;;;
2022/11/30 14:45:42;;;;;;;140.82;59.83;;;4.50;99.90;;;2.81;100.00;102369.34;4844068;29;20075;-86
2022/11/30 14:51:23;;;;;;;140.02;61.20;;;4.40;99.90;;;2.72;100.00;102370.09;4938782;28;20050;-86
2022/11/30 14:54:19;;;;;;;129.32;57.40;;;4.30;99.90;;;2.57;100.00;102368.19;4944258;28;20406;-86
2022/11/30 14:57:30;;;;;;;141.55;61.85;;;4.30;99.90;;;2.60;100.00;102376.00;4984458;28;20037;-86
2022/11/30 15:00:25;;;;;;;132.00;59.90;;;4.30;99.90;;;2.56;100.00;102366.41;4966210;28;20041;-85
2022/11/30 15:07:03;;;;;;;106.15;44.90;;;4.30;99.90;;;2.54;100.00;102381.13;4929906;29;20120;-86
2022/11/30 15:09:31;;;;;;;147.18;62.28;;;4.30;99.90;;;2.64;100.00;102374.31;4910304;29;20039;-86
2022/11/30 15:12:26;;;;;;;144.80;63.20;;;;;;;2.70;100.00;102386.50;4890398;29;20032;-86
2022/11/30 15:15:48;;;;;;;139.40;63.63;;;4.40;99.90;;;2.74;100.00;102388.31;4969184;28;20051;-85
2022/11/30 15:18:32;;;;;;;142.50;62.78;;;;;;;2.70;100.00;102386.50;4983642;28;20041;-86
2022/11/30 15:21:57;;;;;;;144.35;61.35;;;4.30;99.90;;;2.78;100.00;102390.97;4962695;28;20037;-86
2022/11/30 15:24:57;;;;;;;149.73;61.65;;;4.40;99.90;;;2.74;100.00;102383.09;4888788;29;20037;-86
2022/11/30 15:28:03;;;;;;;;;;;;;;;;;;;;;
2022/11/30 15:30:51;;;;;;;151.50;63.88;;;4.30;99.90;;;2.67;100.00;102374.34;4903531;29;20028;-86
2022/11/30 15:33:56;;;;;;;150.15;65.57;;;4.30;99.90;;;2.67;100.00;102380.41;4907683;29;20146;-86
2022/11/30 15:36:32;;;;;;;;;;;;;;;;;;;;;
2022/11/30 15:39:05;;;;;;;149.90;65.28;;;;;;;2.69;100.00;102379.59;4896572;29;20040;-86
2022/11/30 15:41:41;;;;;;;148.57;64.38;;;;;;;2.59;100.00;102387.28;4900780;29;20043;-86
2022/11/30 15:48:38;;;;;;;155.35;66.70;;;4.20;99.90;;;2.62;100.00;102383.84;5097898;27;20722;-85
2022/11/30 15:51:05;;;;;;;153.50;65.22;;;4.30;99.90;;;2.60;100.00;102393.34;5034365;28;20052;-84
2022/11/30 15:53:56;;;;;;;172.05;66.80;;;;;;;2.65;100.00;102383.84;5051817;28;20013;-83
2022/11/30 15:56:35;;;;;;;157.20;65.93;;;4.30;99.90;;;2.71;100.00;102383.06;5041504;28;20063;-84